Current | Forecast
Updated: 5:30 PM +12 on February 24, 2018
Observed at Petropavlovsk Kamchatskij, Russia
Temperature 23°F
Windchill 11°F
Humidity 39%
Dew Point 1°F
Wind West at 13 mph
Pressure 30.06 in (Steady)
Conditions Clear
Visibility 6.2 miles
UV N/A
Clouds
Yesterday's Maximum 27°F
Yesterday's Minimum -2°F approx.
Yesterday's Heating Degree Days 53 approx.
Sunrise8:27 PM UTC
Sunset6:55 AM UTC
Moon Rise12:24 AM UTC
Moon Set4:33 PM UTC
Moon PhaseMoon Phase
First Quarter
Raw METARMETAR UHPP 240530Z 28006MPS 9999 NSC M05/M17 Q1018 R34L/CLRD70 NOSIG RMK QFE760/1013


Monday
. High: 42° F.
Tuesday
. High: 44° F.
Wednesday
. High: 39° F.
Thursday
. High: 35° F.
Friday
. High: 37° F.
Saturday
. High: 44° F.
Sunday
. High: 50° F.
Monday
. High: 41° F.

Units: English | Metric

Find the Weather for any City, State or Zipcode, or Country:

U.S. State List | Severe Weather | Tropical Storms | Ski Conditions
United States | Canada | Central America | South America | Asia | Europe | Australia | Africa | Islands

Weather Underground

© Copyright 2018
The Weather Company, LLC